sensor_id;sensor_type;location;lat;lon;timestamp;P1;durP1;ratioP1;P2;durP2;ratioP2
1180;SDS011;579;52.046;8.532;2023-04-29T00:01:43;0.57;;;0.57;;
1180;SDS011;579;52.046;8.532;2023-04-29T00:04:09;0.75;;;0.75;;
1180;SDS011;579;52.046;8.532;2023-04-29T00:06:35;0.68;;;0.68;;
1180;SDS011;579;52.046;8.532;2023-04-29T00:09:01;0.65;;;0.65;;
1180;SDS011;579;52.046;8.532;2023-04-29T00:11:28;1.02;;;1.02;;
1180;SDS011;579;52.046;8.532;2023-04-29T00:13:54;0.57;;;0.57;;
1180;SDS011;579;52.046;8.532;2023-04-29T00:16:21;0.40;;;0.40;;
1180;SDS011;579;52.046;8.532;2023-04-29T00:23:48;0.30;;;0.30;;
1180;SDS011;579;52.046;8.532;2023-04-29T00:26:15;0.50;;;0.50;;
1180;SDS011;579;52.046;8.532;2023-04-29T00:28:41;0.52;;;0.52;;
1180;SDS011;579;52.046;8.532;2023-04-29T00:31:07;0.50;;;0.50;;
1180;SDS011;579;52.046;8.532;2023-04-29T00:33:33;0.63;;;0.63;;
1180;SDS011;579;52.046;8.532;2023-04-29T00:36:00;0.40;;;0.40;;
1180;SDS011;579;52.046;8.532;2023-04-29T00:38:26;0.40;;;0.40;;
1180;SDS011;579;52.046;8.532;2023-04-29T00:47:36;0.57;;;0.57;;
1180;SDS011;579;52.046;8.532;2023-04-29T00:50:03;0.47;;;0.47;;
1180;SDS011;579;52.046;8.532;2023-04-29T00:52:31;0.60;;;0.60;;
1180;SDS011;579;52.046;8.532;2023-04-29T00:54:58;0.60;;;0.60;;
1180;SDS011;579;52.046;8.532;2023-04-29T00:57:25;0.50;;;0.50;;
1180;SDS011;579;52.046;8.532;2023-04-29T00:59:53;0.63;;;0.63;;
1180;SDS011;579;52.046;8.532;2023-04-29T01:02:19;0.50;;;0.50;;
1180;SDS011;579;52.046;8.532;2023-04-29T01:09:53;0.60;;;0.60;;
1180;SDS011;579;52.046;8.532;2023-04-29T01:12:31;0.80;;;0.80;;
1180;SDS011;579;52.046;8.532;2023-04-29T01:15:08;0.50;;;0.50;;
1180;SDS011;579;52.046;8.532;2023-04-29T01:17:43;1.00;;;1.00;;
1180;SDS011;579;52.046;8.532;2023-04-29T01:20:15;0.60;;;0.60;;
1180;SDS011;579;52.046;8.532;2023-04-29T01:22:42;0.68;;;0.68;;
1180;SDS011;579;52.046;8.532;2023-04-29T01:25:09;0.90;;;0.90;;
1180;SDS011;579;52.046;8.532;2023-04-29T01:32:42;0.95;;;0.95;;
1180;SDS011;579;52.046;8.532;2023-04-29T01:35:33;0.40;;;0.40;;
1180;SDS011;579;52.046;8.532;2023-04-29T01:38:16;0.57;;;0.57;;
1180;SDS011;579;52.046;8.532;2023-04-29T01:40:52;0.50;;;0.50;;
1180;SDS011;579;52.046;8.532;2023-04-29T01:43:31;0.70;;;0.70;;
1180;SDS011;579;52.046;8.532;2023-04-29T01:45:58;0.80;;;0.80;;
1180;SDS011;579;52.046;8.532;2023-04-29T01:48:29;0.52;;;0.52;;
1180;SDS011;579;52.046;8.532;2023-04-29T01:55:54;0.40;;;0.40;;
1180;SDS011;579;52.046;8.532;2023-04-29T01:58:20;0.50;;;0.50;;
1180;SDS011;579;52.046;8.532;2023-04-29T02:00:47;0.47;;;0.47;;
1180;SDS011;579;52.046;8.532;2023-04-29T02:03:13;0.30;;;0.30;;
1180;SDS011;579;52.046;8.532;2023-04-29T02:05:39;0.40;;;0.40;;
1180;SDS011;579;52.046;8.532;2023-04-29T02:08:06;0.50;;;0.50;;
1180;SDS011;579;52.046;8.532;2023-04-29T02:10:32;0.50;;;0.50;;
1180;SDS011;579;52.046;8.532;2023-04-29T02:19:57;0.60;;;0.60;;
1180;SDS011;579;52.046;8.532;2023-04-29T02:22:23;0.43;;;0.43;;
1180;SDS011;579;52.046;8.532;2023-04-29T02:24:49;0.47;;;0.47;;
1180;SDS011;579;52.046;8.532;2023-04-29T02:27:16;0.40;;;0.40;;
1180;SDS011;579;52.046;8.532;2023-04-29T02:29:42;0.40;;;0.40;;
1180;SDS011;579;52.046;8.532;2023-04-29T02:32:08;0.50;;;0.50;;
1180;SDS011;579;52.046;8.532;2023-04-29T02:34:35;0.60;;;0.60;;
1180;SDS011;579;52.046;8.532;2023-04-29T02:42:05;0.60;;;0.60;;
1180;SDS011;579;52.046;8.532;2023-04-29T02:44:31;0.30;;;0.30;;
1180;SDS011;579;52.046;8.532;2023-04-29T02:46:58;0.40;;;0.40;;
1180;SDS011;579;52.046;8.532;2023-04-29T02:49:24;0.52;;;0.52;;
1180;SDS011;579;52.046;8.532;2023-04-29T02:51:50;0.50;;;0.50;;
1180;SDS011;579;52.046;8.532;2023-04-29T02:54:17;0.40;;;0.40;;
1180;SDS011;579;52.046;8.532;2023-04-29T02:56:43;0.50;;;0.50;;
1180;SDS011;579;52.046;8.532;2023-04-29T03:04:06;1.23;;;1.23;;
1180;SDS011;579;52.046;8.532;2023-04-29T03:06:32;1.50;;;1.50;;
1180;SDS011;579;52.046;8.532;2023-04-29T03:08:59;1.20;;;1.20;;
1180;SDS011;579;52.046;8.532;2023-04-29T03:11:25;1.13;;;1.13;;
1180;SDS011;579;52.046;8.532;2023-04-29T03:13:52;0.60;;;0.60;;
1180;SDS011;579;52.046;8.532;2023-04-29T03:16:18;0.50;;;0.50;;
1180;SDS011;579;52.046;8.532;2023-04-29T03:18:45;0.57;;;0.57;;
1180;SDS011;579;52.046;8.532;2023-04-29T03:26:03;0.65;;;0.65;;
1180;SDS011;579;52.046;8.532;2023-04-29T03:28:30;3.30;;;3.20;;
1180;SDS011;579;52.046;8.532;2023-04-29T03:30:56;1.80;;;1.80;;
1180;SDS011;579;52.046;8.532;2023-04-29T03:33:23;1.98;;;1.98;;
1180;SDS011;579;52.046;8.532;2023-04-29T03:35:49;1.80;;;1.80;;
1180;SDS011;579;52.046;8.532;2023-04-29T03:38:16;1.65;;;1.65;;
1180;SDS011;579;52.046;8.532;2023-04-29T03:40:42;2.30;;;2.30;;
1180;SDS011;579;52.046;8.532;2023-04-29T03:43:10;2.25;;;2.25;;
1180;SDS011;579;52.046;8.532;2023-04-29T03:50:06;1.73;;;1.73;;
1180;SDS011;579;52.046;8.532;2023-04-29T03:52:33;2.05;;;2.05;;
1180;SDS011;579;52.046;8.532;2023-04-29T03:55:01;1.80;;;1.80;;
1180;SDS011;579;52.046;8.532;2023-04-29T03:57:27;2.10;;;2.10;;
1180;SDS011;579;52.046;8.532;2023-04-29T03:59:53;1.75;;;1.75;;
1180;SDS011;579;52.046;8.532;2023-04-29T04:02:20;1.60;;;1.60;;
1180;SDS011;579;52.046;8.532;2023-04-29T04:04:46;1.17;;;1.17;;
1180;SDS011;579;52.046;8.532;2023-04-29T04:12:06;1.25;;;1.25;;
1180;SDS011;579;52.046;8.532;2023-04-29T04:14:32;1.40;;;1.40;;
1180;SDS011;579;52.046;8.532;2023-04-29T04:16:59;1.50;;;1.50;;
1180;SDS011;579;52.046;8.532;2023-04-29T04:19:25;1.10;;;1.10;;
1180;SDS011;579;52.046;8.532;2023-04-29T04:21:53;1.40;;;1.40;;
1180;SDS011;579;52.046;8.532;2023-04-29T04:24:19;1.20;;;1.20;;
1180;SDS011;579;52.046;8.532;2023-04-29T04:26:46;0.77;;;0.77;;
1180;SDS011;579;52.046;8.532;2023-04-29T04:33:35;1.60;;;1.60;;
1180;SDS011;579;52.046;8.532;2023-04-29T04:36:01;1.60;;;1.60;;
1180;SDS011;579;52.046;8.532;2023-04-29T04:38:27;1.45;;;1.45;;
1180;SDS011;579;52.046;8.532;2023-04-29T04:40:54;1.60;;;1.60;;
1180;SDS011;579;52.046;8.532;2023-04-29T04:43:20;1.05;;;1.05;;
1180;SDS011;579;52.046;8.532;2023-04-29T04:45:46;1.30;;;1.30;;
1180;SDS011;579;52.046;8.532;2023-04-29T04:48:13;1.08;;;1.08;;
1180;SDS011;579;52.046;8.532;2023-04-29T04:54:27;1.10;;;1.10;;
1180;SDS011;579;52.046;8.532;2023-04-29T04:56:53;0.90;;;0.90;;
1180;SDS011;579;52.046;8.532;2023-04-29T04:59:20;0.98;;;0.98;;
1180;SDS011;579;52.046;8.532;2023-04-29T05:01:46;0.70;;;0.70;;
1180;SDS011;579;52.046;8.532;2023-04-29T05:04:12;0.80;;;0.80;;
1180;SDS011;579;52.046;8.532;2023-04-29T05:06:39;1.40;;;1.40;;
1180;SDS011;579;52.046;8.532;2023-04-29T05:09:06;1.00;;;1.00;;
1180;SDS011;579;52.046;8.532;2023-04-29T05:16:07;0.82;;;0.82;;
1180;SDS011;579;52.046;8.532;2023-04-29T05:18:33;1.05;;;1.05;;
1180;SDS011;579;52.046;8.532;2023-04-29T05:21:00;0.80;;;0.80;;
1180;SDS011;579;52.046;8.532;2023-04-29T05:23:26;1.13;;;1.13;;
1180;SDS011;579;52.046;8.532;2023-04-29T05:25:52;0.70;;;0.70;;
1180;SDS011;579;52.046;8.532;2023-04-29T05:28:19;0.82;;;0.82;;
1180;SDS011;579;52.046;8.532;2023-04-29T05:30:45;0.82;;;0.82;;
1180;SDS011;579;52.046;8.532;2023-04-29T05:37:35;1.02;;;1.02;;
1180;SDS011;579;52.046;8.532;2023-04-29T05:40:01;1.15;;;1.15;;
1180;SDS011;579;52.046;8.532;2023-04-29T05:42:28;1.30;;;1.30;;
1180;SDS011;579;52.046;8.532;2023-04-29T05:44:54;0.90;;;0.90;;
1180;SDS011;579;52.046;8.532;2023-04-29T05:47:20;1.27;;;1.27;;
1180;SDS011;579;52.046;8.532;2023-04-29T05:49:47;0.73;;;0.73;;
1180;SDS011;579;52.046;8.532;2023-04-29T05:52:14;1.02;;;1.02;;
1180;SDS011;579;52.046;8.532;2023-04-29T05:59:46;1.10;;;1.10;;
1180;SDS011;579;52.046;8.532;2023-04-29T06:02:12;0.90;;;0.90;;
1180;SDS011;579;52.046;8.532;2023-04-29T06:04:38;1.00;;;1.00;;
1180;SDS011;579;52.046;8.532;2023-04-29T06:07:05;1.00;;;1.00;;
1180;SDS011;579;52.046;8.532;2023-04-29T06:09:33;0.73;;;0.73;;
1180;SDS011;579;52.046;8.532;2023-04-29T06:11:59;1.00;;;1.00;;
1180;SDS011;579;52.046;8.532;2023-04-29T06:14:27;1.08;;;1.08;;
1180;SDS011;579;52.046;8.532;2023-04-29T06:21:34;0.73;;;0.73;;
1180;SDS011;579;52.046;8.532;2023-04-29T06:24:01;1.05;;;1.05;;
1180;SDS011;579;52.046;8.532;2023-04-29T06:26:27;0.95;;;0.95;;
1180;SDS011;579;52.046;8.532;2023-04-29T06:28:53;0.70;;;0.70;;
1180;SDS011;579;52.046;8.532;2023-04-29T06:31:19;0.95;;;0.95;;
1180;SDS011;579;52.046;8.532;2023-04-29T06:33:46;0.70;;;0.70;;
1180;SDS011;579;52.046;8.532;2023-04-29T06:36:12;0.90;;;0.90;;
1180;SDS011;579;52.046;8.532;2023-04-29T06:43:44;1.20;;;1.20;;
1180;SDS011;579;52.046;8.532;2023-04-29T06:46:10;1.35;;;1.35;;
1180;SDS011;579;52.046;8.532;2023-04-29T06:48:37;1.15;;;1.15;;
1180;SDS011;579;52.046;8.532;2023-04-29T06:51:03;1.20;;;1.20;;
1180;SDS011;579;52.046;8.532;2023-04-29T06:53:29;1.25;;;1.25;;
1180;SDS011;579;52.046;8.532;2023-04-29T06:55:56;0.90;;;0.90;;
1180;SDS011;579;52.046;8.532;2023-04-29T06:58:22;1.23;;;1.23;;
1180;SDS011;579;52.046;8.532;2023-04-29T07:05:08;0.70;;;0.70;;
1180;SDS011;579;52.046;8.532;2023-04-29T07:07:35;0.68;;;0.68;;
1180;SDS011;579;52.046;8.532;2023-04-29T07:10:01;0.50;;;0.50;;
1180;SDS011;579;52.046;8.532;2023-04-29T07:12:29;0.73;;;0.73;;
1180;SDS011;579;52.046;8.532;2023-04-29T07:14:55;0.75;;;0.75;;
1180;SDS011;579;52.046;8.532;2023-04-29T07:17:22;0.90;;;0.90;;
1180;SDS011;579;52.046;8.532;2023-04-29T07:19:49;1.10;;;1.10;;
1180;SDS011;579;52.046;8.532;2023-04-29T07:26:34;1.17;;;1.17;;
1180;SDS011;579;52.046;8.532;2023-04-29T07:29:00;1.30;;;1.30;;
1180;SDS011;579;52.046;8.532;2023-04-29T07:31:27;1.50;;;1.50;;
1180;SDS011;579;52.046;8.532;2023-04-29T07:33:53;1.73;;;1.73;;
1180;SDS011;579;52.046;8.532;2023-04-29T07:36:21;1.20;;;1.20;;
1180;SDS011;579;52.046;8.532;2023-04-29T07:38:50;1.35;;;1.35;;
1180;SDS011;579;52.046;8.532;2023-04-29T07:41:20;0.50;;;0.50;;
1180;SDS011;579;52.046;8.532;2023-04-29T07:47:07;1.40;;;1.40;;
1180;SDS011;579;52.046;8.532;2023-04-29T07:49:34;1.10;;;1.10;;
1180;SDS011;579;52.046;8.532;2023-04-29T07:52:00;1.60;;;1.60;;
1180;SDS011;579;52.046;8.532;2023-04-29T07:54:27;1.90;;;1.90;;
1180;SDS011;579;52.046;8.532;2023-04-29T07:56:56;1.60;;;1.60;;
1180;SDS011;579;52.046;8.532;2023-04-29T07:59:22;1.60;;;1.60;;
1180;SDS011;579;52.046;8.532;2023-04-29T08:01:49;1.80;;;1.80;;
1180;SDS011;579;52.046;8.532;2023-04-29T08:09:04;1.60;;;1.60;;
1180;SDS011;579;52.046;8.532;2023-04-29T08:11:30;1.60;;;1.60;;
1180;SDS011;579;52.046;8.532;2023-04-29T08:13:57;1.50;;;1.50;;
1180;SDS011;579;52.046;8.532;2023-04-29T08:16:24;1.77;;;1.77;;
1180;SDS011;579;52.046;8.532;2023-04-29T08:18:52;1.50;;;1.50;;
1180;SDS011;579;52.046;8.532;2023-04-29T08:21:18;1.27;;;1.27;;
1180;SDS011;579;52.046;8.532;2023-04-29T08:23:44;1.50;;;1.50;;
1180;SDS011;579;52.046;8.532;2023-04-29T08:31:17;1.42;;;1.42;;
1180;SDS011;579;52.046;8.532;2023-04-29T08:33:44;1.25;;;1.25;;
1180;SDS011;579;52.046;8.532;2023-04-29T08:36:11;1.15;;;1.15;;
1180;SDS011;579;52.046;8.532;2023-04-29T08:38:37;1.90;;;1.90;;
1180;SDS011;579;52.046;8.532;2023-04-29T08:41:06;1.65;;;1.65;;
1180;SDS011;579;52.046;8.532;2023-04-29T08:43:33;1.60;;;1.60;;
1180;SDS011;579;52.046;8.532;2023-04-29T08:46:01;1.67;;;1.67;;
1180;SDS011;579;52.046;8.532;2023-04-29T08:53:31;2.28;;;2.28;;
1180;SDS011;579;52.046;8.532;2023-04-29T08:55:59;1.85;;;1.85;;
1180;SDS011;579;52.046;8.532;2023-04-29T08:58:28;2.50;;;2.50;;
1180;SDS011;579;52.046;8.532;2023-04-29T09:00:58;2.30;;;2.30;;
1180;SDS011;579;52.046;8.532;2023-04-29T09:03:25;1.30;;;1.30;;
1180;SDS011;579;52.046;8.532;2023-04-29T09:05:58;2.17;;;2.17;;
1180;SDS011;579;52.046;8.532;2023-04-29T09:08:25;1.67;;;1.67;;
1180;SDS011;579;52.046;8.532;2023-04-29T09:15:57;1.98;;;1.98;;
1180;SDS011;579;52.046;8.532;2023-04-29T09:18:43;1.50;;;1.50;;
1180;SDS011;579;52.046;8.532;2023-04-29T09:21:11;2.22;;;2.22;;
1180;SDS011;579;52.046;8.532;2023-04-29T09:23:40;2.08;;;2.08;;
1180;SDS011;579;52.046;8.532;2023-04-29T09:26:06;2.50;;;2.50;;
1180;SDS011;579;52.046;8.532;2023-04-29T09:28:33;1.55;;;1.55;;
1180;SDS011;579;52.046;8.532;2023-04-29T09:31:01;2.10;;;2.10;;
1180;SDS011;579;52.046;8.532;2023-04-29T09:37:21;1.45;;;1.45;;
1180;SDS011;579;52.046;8.532;2023-04-29T09:39:49;1.90;;;1.90;;
1180;SDS011;579;52.046;8.532;2023-04-29T09:42:15;1.90;;;1.90;;
1180;SDS011;579;52.046;8.532;2023-04-29T09:44:41;1.60;;;1.60;;
1180;SDS011;579;52.046;8.532;2023-04-29T09:47:09;2.10;;;2.10;;
1180;SDS011;579;52.046;8.532;2023-04-29T09:49:37;1.52;;;1.52;;
1180;SDS011;579;52.046;8.532;2023-04-29T09:52:06;1.98;;;1.98;;
1180;SDS011;579;52.046;8.532;2023-04-29T09:59:37;1.88;;;1.88;;
1180;SDS011;579;52.046;8.532;2023-04-29T10:02:06;1.60;;;1.60;;
1180;SDS011;579;52.046;8.532;2023-04-29T10:04:39;1.80;;;1.80;;
1180;SDS011;579;52.046;8.532;2023-04-29T10:07:06;2.00;;;2.00;;
1180;SDS011;579;52.046;8.532;2023-04-29T10:09:34;2.15;;;2.15;;
1180;SDS011;579;52.046;8.532;2023-04-29T10:12:04;1.95;;;1.95;;
1180;SDS011;579;52.046;8.532;2023-04-29T10:14:33;1.60;;;1.60;;
1180;SDS011;579;52.046;8.532;2023-04-29T10:21:27;2.17;;;2.17;;
1180;SDS011;579;52.046;8.532;2023-04-29T10:23:55;1.80;;;1.80;;
1180;SDS011;579;52.046;8.532;2023-04-29T10:26:24;1.65;;;1.65;;
1180;SDS011;579;52.046;8.532;2023-04-29T10:28:53;1.55;;;1.55;;
1180;SDS011;579;52.046;8.532;2023-04-29T10:31:21;1.50;;;1.50;;
1180;SDS011;579;52.046;8.532;2023-04-29T10:33:50;2.30;;;2.30;;
1180;SDS011;579;52.046;8.532;2023-04-29T10:36:20;2.30;;;2.30;;
1180;SDS011;579;52.046;8.532;2023-04-29T10:43:02;1.60;;;1.60;;
1180;SDS011;579;52.046;8.532;2023-04-29T10:45:29;1.55;;;1.55;;
1180;SDS011;579;52.046;8.532;2023-04-29T10:48:11;2.00;;;2.00;;
1180;SDS011;579;52.046;8.532;2023-04-29T10:50:58;1.77;;;1.77;;
1180;SDS011;579;52.046;8.532;2023-04-29T10:53:30;1.52;;;1.52;;
1180;SDS011;579;52.046;8.532;2023-04-29T10:55:58;2.10;;;2.10;;
1180;SDS011;579;52.046;8.532;2023-04-29T10:58:35;2.05;;;2.05;;
1180;SDS011;579;52.046;8.532;2023-04-29T11:06:06;1.65;;;1.65;;
1180;SDS011;579;52.046;8.532;2023-04-29T11:08:36;1.70;;;1.70;;
1180;SDS011;579;52.046;8.532;2023-04-29T11:11:04;2.17;;;2.17;;
1180;SDS011;579;52.046;8.532;2023-04-29T11:13:31;2.08;;;2.08;;
1180;SDS011;579;52.046;8.532;2023-04-29T11:16:02;1.35;;;1.35;;
1180;SDS011;579;52.046;8.532;2023-04-29T11:18:30;1.90;;;1.90;;
1180;SDS011;579;52.046;8.532;2023-04-29T11:26:12;1.60;;;1.60;;
1180;SDS011;579;52.046;8.532;2023-04-29T11:28:40;1.40;;;1.40;;
1180;SDS011;579;52.046;8.532;2023-04-29T11:31:07;2.05;;;2.05;;
1180;SDS011;579;52.046;8.532;2023-04-29T11:33:33;1.00;;;1.00;;
1180;SDS011;579;52.046;8.532;2023-04-29T11:36:00;1.60;;;1.60;;
1180;SDS011;579;52.046;8.532;2023-04-29T11:38:28;1.60;;;1.60;;
1180;SDS011;579;52.046;8.532;2023-04-29T11:40:55;1.70;;;1.70;;
1180;SDS011;579;52.046;8.532;2023-04-29T11:47:31;1.23;;;1.23;;
1180;SDS011;579;52.046;8.532;2023-04-29T11:50:01;1.65;;;1.65;;
1180;SDS011;579;52.046;8.532;2023-04-29T11:52:29;1.17;;;1.17;;
1180;SDS011;579;52.046;8.532;2023-04-29T11:54:56;1.58;;;1.58;;
1180;SDS011;579;52.046;8.532;2023-04-29T11:57:23;1.70;;;1.70;;
1180;SDS011;579;52.046;8.532;2023-04-29T11:59:49;1.00;;;1.00;;
1180;SDS011;579;52.046;8.532;2023-04-29T12:02:20;1.20;;;1.20;;
1180;SDS011;579;52.046;8.532;2023-04-29T12:08:13;1.30;;;1.30;;
1180;SDS011;579;52.046;8.532;2023-04-29T12:10:39;1.80;;;1.80;;
1180;SDS011;579;52.046;8.532;2023-04-29T12:13:06;1.95;;;1.95;;
1180;SDS011;579;52.046;8.532;2023-04-29T12:15:33;1.25;;;1.25;;
1180;SDS011;579;52.046;8.532;2023-04-29T12:17:59;1.73;;;1.73;;
1180;SDS011;579;52.046;8.532;2023-04-29T12:20:26;2.13;;;2.13;;
1180;SDS011;579;52.046;8.532;2023-04-29T12:22:53;1.60;;;1.60;;
1180;SDS011;579;52.046;8.532;2023-04-29T12:30:33;2.00;;;2.00;;
1180;SDS011;579;52.046;8.532;2023-04-29T12:33:01;1.85;;;1.85;;
1180;SDS011;579;52.046;8.532;2023-04-29T12:35:27;1.90;;;1.90;;
1180;SDS011;579;52.046;8.532;2023-04-29T12:37:53;1.30;;;1.30;;
1180;SDS011;579;52.046;8.532;2023-04-29T12:40:26;1.90;;;1.90;;
1180;SDS011;579;52.046;8.532;2023-04-29T12:42:53;1.63;;;1.63;;
1180;SDS011;579;52.046;8.532;2023-04-29T12:45:26;1.33;;;1.33;;
1180;SDS011;579;52.046;8.532;2023-04-29T12:48:13;1.55;;;1.55;;
1180;SDS011;579;52.046;8.532;2023-04-29T12:50:42;1.60;;;1.60;;
1180;SDS011;579;52.046;8.532;2023-04-29T12:53:13;2.00;;;2.00;;
1180;SDS011;579;52.046;8.532;2023-04-29T12:55:40;1.70;;;1.70;;
1180;SDS011;579;52.046;8.532;2023-04-29T12:58:06;1.30;;;1.30;;
1180;SDS011;579;52.046;8.532;2023-04-29T13:00:33;1.65;;;1.65;;
1180;SDS011;579;52.046;8.532;2023-04-29T13:03:01;1.15;;;1.15;;
1180;SDS011;579;52.046;8.532;2023-04-29T13:09:35;0.93;;;0.93;;
1180;SDS011;579;52.046;8.532;2023-04-29T13:12:05;0.98;;;0.98;;
1180;SDS011;579;52.046;8.532;2023-04-29T13:14:33;1.25;;;1.25;;
1180;SDS011;579;52.046;8.532;2023-04-29T13:17:00;1.50;;;1.50;;
1180;SDS011;579;52.046;8.532;2023-04-29T13:19:28;1.65;;;1.65;;
1180;SDS011;579;52.046;8.532;2023-04-29T13:21:54;0.80;;;0.80;;
1180;SDS011;579;52.046;8.532;2023-04-29T13:24:20;1.17;;;1.17;;
1180;SDS011;579;52.046;8.532;2023-04-29T13:30:43;1.20;;;1.20;;
1180;SDS011;579;52.046;8.532;2023-04-29T13:33:10;1.30;;;1.30;;
1180;SDS011;579;52.046;8.532;2023-04-29T13:35:37;1.10;;;1.10;;
1180;SDS011;579;52.046;8.532;2023-04-29T13:38:04;1.30;;;1.30;;
1180;SDS011;579;52.046;8.532;2023-04-29T13:40:30;1.42;;;1.42;;
1180;SDS011;579;52.046;8.532;2023-04-29T13:42:57;0.88;;;0.88;;
1180;SDS011;579;52.046;8.532;2023-04-29T13:45:23;0.95;;;0.95;;
1180;SDS011;579;52.046;8.532;2023-04-29T13:52:02;1.45;;;1.45;;
1180;SDS011;579;52.046;8.532;2023-04-29T13:54:29;1.40;;;1.40;;
1180;SDS011;579;52.046;8.532;2023-04-29T13:56:55;1.40;;;1.40;;
1180;SDS011;579;52.046;8.532;2023-04-29T13:59:25;1.05;;;1.05;;
1180;SDS011;579;52.046;8.532;2023-04-29T14:01:51;1.30;;;1.30;;
1180;SDS011;579;52.046;8.532;2023-04-29T14:04:18;1.60;;;1.60;;
1180;SDS011;579;52.046;8.532;2023-04-29T14:06:44;1.17;;;1.17;;
1180;SDS011;579;52.046;8.532;2023-04-29T14:12:55;1.00;;;1.00;;
1180;SDS011;579;52.046;8.532;2023-04-29T14:15:22;1.00;;;1.00;;
1180;SDS011;579;52.046;8.532;2023-04-29T14:17:48;1.10;;;1.10;;
1180;SDS011;579;52.046;8.532;2023-04-29T14:20:14;1.15;;;1.15;;
1180;SDS011;579;52.046;8.532;2023-04-29T14:22:41;0.95;;;0.95;;
1180;SDS011;579;52.046;8.532;2023-04-29T14:25:07;1.08;;;1.08;;
1180;SDS011;579;52.046;8.532;2023-04-29T14:27:35;1.27;;;1.27;;
1180;SDS011;579;52.046;8.532;2023-04-29T14:35:02;1.25;;;1.25;;
1180;SDS011;579;52.046;8.532;2023-04-29T14:37:30;1.85;;;1.85;;
1180;SDS011;579;52.046;8.532;2023-04-29T14:39:56;1.27;;;1.27;;
1180;SDS011;579;52.046;8.532;2023-04-29T14:42:23;1.60;;;1.60;;
1180;SDS011;579;52.046;8.532;2023-04-29T14:44:49;1.10;;;1.10;;
1180;SDS011;579;52.046;8.532;2023-04-29T14:47:16;0.90;;;0.90;;
1180;SDS011;579;52.046;8.532;2023-04-29T14:49:43;1.30;;;1.30;;
1180;SDS011;579;52.046;8.532;2023-04-29T14:57:16;1.27;;;1.27;;
1180;SDS011;579;52.046;8.532;2023-04-29T14:59:42;1.33;;;1.33;;
1180;SDS011;579;52.046;8.532;2023-04-29T15:02:09;1.70;;;1.70;;
1180;SDS011;579;52.046;8.532;2023-04-29T15:04:35;1.42;;;1.42;;
1180;SDS011;579;52.046;8.532;2023-04-29T15:07:03;1.85;;;1.85;;
1180;SDS011;579;52.046;8.532;2023-04-29T15:09:30;1.30;;;1.30;;
1180;SDS011;579;52.046;8.532;2023-04-29T15:11:56;1.58;;;1.58;;
1180;SDS011;579;52.046;8.532;2023-04-29T15:18:38;1.02;;;1.02;;
1180;SDS011;579;52.046;8.532;2023-04-29T15:21:05;0.82;;;0.82;;
1180;SDS011;579;52.046;8.532;2023-04-29T15:23:32;1.85;;;1.85;;
1180;SDS011;579;52.046;8.532;2023-04-29T15:25:58;0.80;;;0.80;;
1180;SDS011;579;52.046;8.532;2023-04-29T15:28:25;1.25;;;1.25;;
1180;SDS011;579;52.046;8.532;2023-04-29T15:30:51;1.17;;;1.17;;
1180;SDS011;579;52.046;8.532;2023-04-29T15:33:18;2.00;;;2.00;;
1180;SDS011;579;52.046;8.532;2023-04-29T15:39:08;1.88;;;1.88;;
1180;SDS011;579;52.046;8.532;2023-04-29T15:41:35;2.30;;;2.30;;
1180;SDS011;579;52.046;8.532;2023-04-29T15:44:01;1.90;;;1.90;;
1180;SDS011;579;52.046;8.532;2023-04-29T15:46:28;2.00;;;2.00;;
1180;SDS011;579;52.046;8.532;2023-04-29T15:48:54;2.40;;;2.40;;
1180;SDS011;579;52.046;8.532;2023-04-29T15:51:21;1.95;;;1.95;;
1180;SDS011;579;52.046;8.532;2023-04-29T15:53:47;1.85;;;1.85;;
1180;SDS011;579;52.046;8.532;2023-04-29T16:00:37;1.77;;;1.77;;
1180;SDS011;579;52.046;8.532;2023-04-29T16:03:04;1.63;;;1.63;;
1180;SDS011;579;52.046;8.532;2023-04-29T16:05:30;1.70;;;1.70;;
1180;SDS011;579;52.046;8.532;2023-04-29T16:07:58;1.80;;;1.80;;
1180;SDS011;579;52.046;8.532;2023-04-29T16:10:24;1.48;;;1.48;;
1180;SDS011;579;52.046;8.532;2023-04-29T16:12:52;1.25;;;1.25;;
1180;SDS011;579;52.046;8.532;2023-04-29T16:15:21;1.30;;;1.30;;
1180;SDS011;579;52.046;8.532;2023-04-29T16:20:27;2.10;;;2.10;;
1180;SDS011;579;52.046;8.532;2023-04-29T16:22:53;2.08;;;2.08;;
1180;SDS011;579;52.046;8.532;2023-04-29T16:25:20;1.52;;;1.52;;
1180;SDS011;579;52.046;8.532;2023-04-29T16:27:47;2.03;;;2.03;;
1180;SDS011;579;52.046;8.532;2023-04-29T16:30:13;1.70;;;1.70;;
1180;SDS011;579;52.046;8.532;2023-04-29T16:32:40;1.88;;;1.88;;
1180;SDS011;579;52.046;8.532;2023-04-29T16:35:07;1.83;;;1.83;;
1180;SDS011;579;52.046;8.532;2023-04-29T16:42:42;1.25;;;1.25;;
1180;SDS011;579;52.046;8.532;2023-04-29T16:45:10;0.88;;;0.88;;
1180;SDS011;579;52.046;8.532;2023-04-29T16:47:38;1.20;;;1.20;;
1180;SDS011;579;52.046;8.532;2023-04-29T16:50:06;1.33;;;1.33;;
1180;SDS011;579;52.046;8.532;2023-04-29T16:52:33;1.40;;;1.40;;
1180;SDS011;579;52.046;8.532;2023-04-29T16:55:00;1.20;;;1.20;;
1180;SDS011;579;52.046;8.532;2023-04-29T16:57:27;0.98;;;0.98;;
1180;SDS011;579;52.046;8.532;2023-04-29T17:00:09;1.10;;;1.10;;
1180;SDS011;579;52.046;8.532;2023-04-29T17:02:37;1.50;;;1.50;;
1180;SDS011;579;52.046;8.532;2023-04-29T17:05:07;1.45;;;1.45;;
1180;SDS011;579;52.046;8.532;2023-04-29T17:07:34;1.40;;;1.40;;
1180;SDS011;579;52.046;8.532;2023-04-29T17:10:01;1.50;;;1.50;;
1180;SDS011;579;52.046;8.532;2023-04-29T17:12:28;1.45;;;1.45;;
1180;SDS011;579;52.046;8.532;2023-04-29T17:14:57;0.90;;;0.90;;
1180;SDS011;579;52.046;8.532;2023-04-29T17:22:39;0.88;;;0.88;;
1180;SDS011;579;52.046;8.532;2023-04-29T17:25:05;0.82;;;0.82;;
1180;SDS011;579;52.046;8.532;2023-04-29T17:27:33;0.85;;;0.85;;
1180;SDS011;579;52.046;8.532;2023-04-29T17:29:59;1.30;;;1.30;;
1180;SDS011;579;52.046;8.532;2023-04-29T17:32:26;1.33;;;1.33;;
1180;SDS011;579;52.046;8.532;2023-04-29T17:34:53;1.45;;;1.45;;
1180;SDS011;579;52.046;8.532;2023-04-29T17:37:20;0.85;;;0.85;;
1180;SDS011;579;52.046;8.532;2023-04-29T17:43:35;2.03;;;2.03;;
1180;SDS011;579;52.046;8.532;2023-04-29T17:46:02;1.73;;;1.73;;
1180;SDS011;579;52.046;8.532;2023-04-29T17:48:28;1.27;;;1.27;;
1180;SDS011;579;52.046;8.532;2023-04-29T17:50:56;1.65;;;1.65;;
1180;SDS011;579;52.046;8.532;2023-04-29T17:53:22;1.20;;;1.20;;
1180;SDS011;579;52.046;8.532;2023-04-29T17:55:50;1.30;;;1.30;;
1180;SDS011;579;52.046;8.532;2023-04-29T17:58:16;1.75;;;1.75;;
1180;SDS011;579;52.046;8.532;2023-04-29T18:05:43;1.00;;;1.00;;
1180;SDS011;579;52.046;8.532;2023-04-29T18:08:10;1.30;;;1.30;;
1180;SDS011;579;52.046;8.532;2023-04-29T18:10:37;1.30;;;1.30;;
1180;SDS011;579;52.046;8.532;2023-04-29T18:13:03;1.00;;;1.00;;
1180;SDS011;579;52.046;8.532;2023-04-29T18:15:29;1.10;;;1.10;;
1180;SDS011;579;52.046;8.532;2023-04-29T18:17:56;1.00;;;1.00;;
1180;SDS011;579;52.046;8.532;2023-04-29T18:20:22;1.20;;;1.20;;
1180;SDS011;579;52.046;8.532;2023-04-29T18:26:38;1.05;;;1.05;;
1180;SDS011;579;52.046;8.532;2023-04-29T18:29:04;1.10;;;1.10;;
1180;SDS011;579;52.046;8.532;2023-04-29T18:31:31;1.10;;;1.10;;
1180;SDS011;579;52.046;8.532;2023-04-29T18:33:57;1.05;;;1.05;;
1180;SDS011;579;52.046;8.532;2023-04-29T18:36:24;1.17;;;1.17;;
1180;SDS011;579;52.046;8.532;2023-04-29T18:38:50;0.95;;;0.95;;
1180;SDS011;579;52.046;8.532;2023-04-29T18:41:16;1.05;;;1.05;;
1180;SDS011;579;52.046;8.532;2023-04-29T18:48:07;1.23;;;1.23;;
1180;SDS011;579;52.046;8.532;2023-04-29T18:50:33;1.45;;;1.45;;
1180;SDS011;579;52.046;8.532;2023-04-29T18:53:00;1.75;;;1.75;;
1180;SDS011;579;52.046;8.532;2023-04-29T18:55:26;1.50;;;1.50;;
1180;SDS011;579;52.046;8.532;2023-04-29T18:57:53;1.02;;;1.02;;
1180;SDS011;579;52.046;8.532;2023-04-29T19:00:19;1.65;;;1.65;;
1180;SDS011;579;52.046;8.532;2023-04-29T19:02:46;1.40;;;1.40;;
1180;SDS011;579;52.046;8.532;2023-04-29T19:09:37;0.70;;;0.70;;
1180;SDS011;579;52.046;8.532;2023-04-29T19:12:03;0.80;;;0.80;;
1180;SDS011;579;52.046;8.532;2023-04-29T19:14:31;0.77;;;0.77;;
1180;SDS011;579;52.046;8.532;2023-04-29T19:16:58;0.90;;;0.90;;
1180;SDS011;579;52.046;8.532;2023-04-29T19:19:24;0.98;;;0.98;;
1180;SDS011;579;52.046;8.532;2023-04-29T19:21:51;0.40;;;0.40;;
1180;SDS011;579;52.046;8.532;2023-04-29T19:24:17;0.30;;;0.30;;
1180;SDS011;579;52.046;8.532;2023-04-29T19:30:36;0.60;;;0.60;;